createdAt,value
2019-02-10T00:00:43.973Z,18.63
2019-02-10T00:03:12.647Z,20.50
2019-02-10T00:05:41.351Z,20.63
2019-02-10T00:08:10.025Z,21.00
2019-02-10T00:10:38.699Z,21.03
2019-02-10T00:13:26.382Z,20.33
2019-02-10T00:15:55.652Z,20.80
2019-02-10T00:18:24.544Z,18.23
2019-02-10T00:20:53.220Z,19.53
2019-02-10T00:23:22.005Z,18.73
2019-02-10T00:25:50.721Z,20.17
2019-02-10T00:28:19.403Z,19.57
2019-02-10T00:30:48.079Z,20.03
2019-02-10T00:33:16.781Z,18.13
2019-02-10T00:35:45.456Z,20.77
2019-02-10T00:38:14.147Z,19.30
2019-02-10T00:40:42.921Z,21.07
2019-02-10T00:43:11.716Z,20.97
2019-02-10T00:45:40.715Z,19.10
2019-02-10T00:48:09.399Z,21.33
2019-02-10T00:50:38.075Z,20.60
2019-02-10T00:53:06.785Z,20.23
2019-02-10T00:55:35.425Z,19.63
2019-02-10T00:58:04.105Z,21.30
2019-02-10T01:00:32.789Z,21.33
2019-02-10T01:03:01.475Z,21.57
2019-02-10T01:05:30.132Z,22.13
2019-02-10T01:07:58.810Z,20.00
2019-02-10T01:10:27.488Z,19.63
2019-02-10T01:12:56.182Z,18.90
2019-02-10T01:15:24.862Z,19.87
2019-02-10T01:17:53.547Z,19.50
2019-02-10T01:20:22.217Z,20.77
2019-02-10T01:22:50.904Z,17.83
2019-02-10T01:25:19.750Z,18.23
2019-02-10T01:27:48.425Z,16.70
2019-02-10T01:30:17.088Z,19.07
2019-02-10T01:32:45.769Z,19.10
2019-02-10T01:35:15.416Z,17.53
2019-02-10T01:37:44.100Z,17.67
2019-02-10T01:40:12.886Z,18.50
2019-02-10T01:42:41.672Z,17.27
2019-02-10T01:45:12.750Z,18.27
2019-02-10T01:47:41.638Z,16.57
2019-02-10T01:50:11.778Z,15.20
2019-02-10T01:52:40.461Z,11.33
2019-02-10T01:55:13.974Z,10.13
2019-02-10T01:57:43.087Z,14.17
2019-02-10T02:00:14.691Z,12.87
2019-02-10T02:02:43.377Z,11.73
2019-02-10T02:05:12.242Z,11.60
2019-02-10T02:07:40.918Z,11.07
2019-02-10T02:10:13.735Z,11.17
2019-02-10T02:12:42.395Z,12.60
2019-02-10T02:15:15.780Z,10.97
2019-02-10T02:17:44.497Z,9.87
2019-02-10T02:20:13.651Z,9.03
2019-02-10T02:22:42.624Z,10.10
2019-02-10T02:25:14.059Z,10.47
2019-02-10T02:27:42.766Z,10.13
2019-02-10T02:30:14.162Z,11.00
2019-02-10T02:32:42.852Z,10.10
2019-02-10T02:35:11.667Z,11.97
2019-02-10T02:37:40.348Z,10.37
2019-02-10T02:40:10.623Z,9.23
2019-02-10T02:42:39.589Z,9.50
2019-02-10T02:45:10.737Z,10.77
2019-02-10T02:47:39.619Z,11.07
2019-02-10T02:50:11.989Z,11.57
2019-02-10T02:52:40.694Z,10.20
2019-02-10T02:55:10.543Z,9.93
2019-02-10T02:57:39.246Z,11.37
2019-02-10T03:00:10.526Z,11.33
2019-02-10T03:02:39.200Z,11.60
2019-02-10T03:05:11.208Z,10.90
2019-02-10T03:07:39.986Z,11.33
2019-02-10T03:10:09.889Z,13.30
2019-02-10T03:12:38.584Z,11.60
2019-02-10T03:15:09.120Z,12.00
2019-02-10T03:17:37.801Z,11.60
2019-02-10T03:20:08.377Z,11.50
2019-02-10T03:22:37.049Z,10.63
2019-02-10T03:25:07.901Z,11.33
2019-02-10T03:27:36.572Z,10.30
2019-02-10T03:30:07.866Z,11.63
2019-02-10T03:32:36.547Z,10.87
2019-02-10T03:35:09.240Z,11.47
2019-02-10T03:37:37.635Z,11.97
2019-02-10T03:40:10.654Z,10.53
2019-02-10T03:42:39.292Z,11.03
2019-02-10T03:45:09.362Z,11.03
2019-02-10T03:47:38.039Z,11.57
2019-02-10T03:50:08.629Z,11.43
2019-02-10T03:52:37.308Z,11.27
2019-02-10T03:55:08.075Z,11.23
2019-02-10T03:57:36.890Z,11.37
2019-02-10T04:00:13.342Z,10.27
2019-02-10T04:02:42.405Z,10.97
2019-02-10T04:05:11.119Z,10.30
2019-02-10T04:07:39.818Z,11.47
2019-02-10T04:10:10.357Z,10.47
2019-02-10T04:12:39.048Z,11.07
2019-02-10T04:15:08.427Z,11.50
2019-02-10T04:17:39.867Z,12.33
2019-02-10T04:20:09.743Z,13.27
2019-02-10T04:22:38.404Z,12.57
2019-02-10T04:25:07.991Z,13.30
2019-02-10T04:27:36.666Z,13.83
2019-02-10T04:30:09.263Z,14.87
2019-02-10T04:32:38.361Z,14.63
2019-02-10T04:35:07.133Z,14.80
2019-02-10T04:37:45.053Z,12.97
2019-02-10T04:40:07.513Z,10.73
2019-02-10T04:42:36.192Z,12.40
2019-02-10T04:45:05.268Z,11.83
2019-02-10T04:47:33.942Z,11.20
2019-02-10T04:50:02.628Z,11.30
2019-02-10T04:52:31.316Z,11.83
2019-02-10T04:55:00.001Z,11.63
2019-02-10T04:57:28.694Z,11.83
2019-02-10T04:59:57.413Z,11.67
2019-02-10T05:02:26.137Z,12.73
2019-02-10T05:04:54.824Z,11.63
2019-02-10T05:07:23.523Z,10.90
2019-02-10T05:09:52.210Z,11.93
2019-02-10T05:12:21.805Z,12.27
2019-02-10T05:14:50.496Z,11.67
2019-02-10T05:17:19.189Z,12.60
2019-02-10T05:19:47.870Z,10.57
2019-02-10T05:22:16.533Z,11.03
2019-02-10T05:24:45.200Z,9.50
2019-02-10T05:27:13.887Z,11.20
2019-02-10T05:29:42.585Z,12.47
2019-02-10T05:32:11.261Z,12.00
2019-02-10T05:34:39.927Z,11.73
2019-02-10T05:37:08.619Z,13.27
2019-02-10T05:39:37.287Z,13.07
2019-02-10T05:42:05.988Z,15.03
2019-02-10T05:44:34.656Z,14.17
2019-02-10T05:47:03.378Z,13.87
2019-02-10T05:49:32.041Z,15.70
2019-02-10T05:52:00.731Z,15.20
2019-02-10T05:54:29.419Z,14.13
2019-02-10T05:56:58.102Z,18.33
2019-02-10T05:59:26.784Z,18.83
2019-02-10T06:02:01.523Z,19.27
2019-02-10T06:04:31.048Z,20.97
2019-02-10T06:07:02.681Z,22.00
2019-02-10T06:09:31.399Z,20.23
2019-02-10T06:12:00.275Z,18.60
2019-02-10T06:14:28.950Z,15.00
2019-02-10T06:16:57.635Z,11.27
2019-02-10T06:19:26.320Z,11.37
2019-02-10T06:21:54.982Z,9.97
2019-02-10T06:24:23.660Z,10.47
2019-02-10T06:26:52.336Z,11.20
2019-02-10T06:29:21.011Z,12.17
2019-02-10T06:31:49.846Z,13.50
2019-02-10T06:34:18.527Z,12.77
2019-02-10T06:36:47.209Z,11.00
2019-02-10T06:39:15.865Z,8.80
2019-02-10T06:41:44.537Z,8.53
2019-02-10T06:44:14.645Z,8.47
2019-02-10T06:46:43.310Z,9.13
2019-02-10T06:49:11.990Z,7.40
2019-02-10T06:51:40.657Z,8.53
2019-02-10T06:54:09.418Z,9.47
2019-02-10T06:56:38.088Z,8.00
2019-02-10T06:59:08.381Z,9.53
2019-02-10T07:01:38.614Z,9.10
2019-02-10T07:04:10.958Z,9.80
2019-02-10T07:06:39.645Z,10.77
2019-02-10T07:09:08.323Z,11.90
2019-02-10T07:11:36.988Z,11.33
2019-02-10T07:14:08.000Z,12.90
2019-02-10T07:16:48.560Z,11.53
2019-02-10T07:19:52.889Z,13.23
2019-02-10T07:22:36.537Z,13.97
2019-02-10T07:25:17.157Z,11.87
2019-02-10T07:28:04.466Z,11.50
2019-02-10T07:30:52.417Z,10.40
2019-02-10T07:33:29.899Z,10.77
2019-02-10T07:36:07.346Z,12.30
2019-02-10T07:38:59.831Z,15.50
2019-02-10T07:41:55.180Z,13.00
2019-02-10T07:44:26.769Z,12.73
2019-02-10T07:47:13.198Z,13.77
2019-02-10T07:50:02.999Z,13.73
2019-02-10T07:52:37.606Z,14.07
2019-02-10T07:55:18.150Z,13.90
2019-02-10T07:58:23.391Z,14.63
2019-02-10T08:01:03.859Z,15.83
2019-02-10T08:03:35.483Z,16.23
2019-02-10T08:06:19.151Z,16.20
2019-02-10T08:09:07.191Z,18.67
2019-02-10T08:11:41.573Z,19.67
2019-02-10T08:14:15.877Z,21.23
2019-02-10T08:17:05.623Z,23.37
2019-02-10T08:20:01.007Z,25.57
2019-02-10T08:22:50.863Z,23.47
2019-02-10T08:25:43.343Z,22.63
2019-02-10T08:28:25.477Z,22.90
2019-02-10T08:30:58.933Z,23.77
2019-02-10T08:33:42.444Z,23.07
2019-02-10T08:36:22.930Z,25.40
2019-02-10T08:39:00.322Z,24.80
2019-02-10T08:41:48.542Z,24.30
2019-02-10T08:44:45.903Z,26.80
2019-02-10T08:47:23.138Z,26.07
2019-02-10T08:50:02.102Z,24.63
2019-02-10T08:52:38.709Z,25.47
2019-02-10T08:55:07.887Z,24.93
2019-02-10T08:57:36.645Z,25.90
2019-02-10T09:00:11.400Z,23.97
2019-02-10T09:02:40.112Z,23.67
2019-02-10T09:05:09.101Z,24.70
2019-02-10T09:07:38.221Z,25.77
2019-02-10T09:10:10.076Z,25.43
2019-02-10T09:12:38.751Z,24.47
2019-02-10T09:15:10.337Z,26.90
2019-02-10T09:17:39.068Z,24.87
2019-02-10T09:20:10.586Z,23.63
2019-02-10T09:22:39.268Z,25.13
2019-02-10T09:25:10.665Z,24.03
2019-02-10T09:27:39.334Z,23.23
2019-02-10T09:30:11.307Z,22.77
2019-02-10T09:32:39.984Z,21.70
2019-02-10T09:35:09.306Z,22.47
2019-02-10T09:37:38.061Z,24.13
2019-02-10T09:40:09.753Z,24.60
2019-02-10T09:42:38.440Z,24.90
2019-02-10T09:45:09.922Z,23.67
2019-02-10T09:47:38.587Z,24.50
2019-02-10T09:50:11.258Z,23.53
2019-02-10T09:52:39.922Z,23.40
2019-02-10T09:55:09.427Z,24.57
2019-02-10T09:57:38.103Z,25.30
2019-02-10T10:00:09.950Z,25.27
2019-02-10T10:02:38.625Z,24.53
2019-02-10T10:05:09.391Z,24.93
2019-02-10T10:07:38.066Z,25.13
2019-02-10T10:10:09.358Z,24.67
2019-02-10T10:12:38.027Z,25.40
2019-02-10T10:15:09.895Z,25.73
2019-02-10T10:17:38.598Z,26.50
2019-02-10T10:20:10.468Z,26.20
2019-02-10T10:22:39.187Z,25.07
2019-02-10T10:25:09.363Z,27.90
2019-02-10T10:27:39.601Z,26.23
2019-02-10T10:30:13.908Z,25.77
2019-02-10T10:32:42.565Z,27.10
2019-02-10T10:35:11.333Z,25.80
2019-02-10T10:37:40.009Z,26.03
2019-02-10T10:40:11.149Z,27.87
2019-02-10T10:42:39.934Z,27.57
2019-02-10T10:45:15.804Z,27.27
2019-02-10T10:47:44.482Z,28.30
2019-02-10T10:50:14.653Z,25.77
2019-02-10T10:52:43.322Z,25.53
2019-02-10T10:55:13.303Z,26.90
2019-02-10T10:57:41.997Z,27.93
2019-02-10T11:00:13.183Z,21.40
2019-02-10T11:02:41.871Z,26.93
2019-02-10T11:05:11.245Z,28.27
2019-02-10T11:07:39.935Z,26.13
2019-02-10T11:10:10.826Z,27.33
2019-02-10T11:12:39.523Z,27.90
2019-02-10T11:15:16.302Z,27.57
2019-02-10T11:17:45.006Z,26.52
2019-02-10T11:20:13.796Z,27.40
2019-02-10T11:22:42.852Z,25.52
2019-02-10T11:25:12.300Z,25.57
2019-02-10T11:27:41.010Z,25.15
2019-02-10T11:30:12.539Z,23.77
2019-02-10T11:32:41.223Z,24.63
2019-02-10T11:35:10.591Z,23.67
2019-02-10T11:37:39.279Z,23.12
2019-02-10T11:40:12.571Z,20.30
2019-02-10T11:42:41.246Z,27.40
2019-02-10T11:45:14.192Z,22.05
2019-02-10T11:47:42.867Z,15.75
2019-02-10T11:50:13.017Z,18.23
2019-02-10T11:52:41.713Z,11.60
2019-02-10T11:55:11.297Z,12.13
2019-02-10T11:57:41.280Z,7.28
2019-02-10T12:00:13.163Z,7.90
2019-02-10T12:02:41.831Z,5.05
2019-02-10T12:05:11.933Z,4.90
2019-02-10T12:07:40.589Z,5.00
2019-02-10T12:10:11.397Z,4.75
2019-02-10T12:12:40.063Z,4.90
2019-02-10T12:15:13.944Z,6.40
2019-02-10T12:17:42.621Z,6.05
2019-02-10T12:20:12.807Z,5.70
2019-02-10T12:22:49.673Z,5.20
2019-02-10T12:25:11.982Z,4.87
2019-02-10T12:27:40.653Z,4.72
2019-02-10T12:30:18.507Z,6.90
2019-02-10T12:32:47.220Z,6.60
2019-02-10T12:35:15.888Z,5.30
2019-02-10T12:37:44.561Z,5.20
2019-02-10T12:40:13.331Z,5.08
2019-02-10T12:42:41.998Z,5.00
2019-02-10T12:45:12.270Z,5.25
2019-02-10T12:47:40.964Z,5.03
2019-02-10T12:50:16.042Z,5.22
2019-02-10T12:52:44.892Z,4.80
2019-02-10T12:55:13.770Z,5.17
2019-02-10T12:57:42.555Z,5.25
2019-02-10T13:00:18.847Z,5.50
2019-02-10T13:02:47.522Z,5.30
2019-02-10T13:05:16.204Z,6.00
2019-02-10T13:07:44.888Z,4.60
2019-02-10T13:10:17.391Z,4.50
2019-02-10T13:12:45.351Z,4.23
2019-02-10T13:15:14.256Z,4.33
2019-02-10T13:17:43.021Z,4.12
2019-02-10T13:20:12.826Z,3.97
2019-02-10T13:22:41.544Z,5.17
2019-02-10T13:25:12.076Z,10.85
2019-02-10T13:27:40.755Z,10.38
2019-02-10T13:30:12.322Z,9.23
2019-02-10T13:32:40.990Z,4.33
2019-02-10T13:35:09.673Z,5.10
2019-02-10T13:37:38.390Z,4.15
2019-02-10T13:40:18.895Z,4.50
2019-02-10T13:42:47.570Z,4.70
2019-02-10T13:45:16.365Z,4.70
2019-02-10T13:47:45.012Z,4.78
2019-02-10T13:50:18.515Z,5.12
2019-02-10T13:52:47.290Z,5.60
2019-02-10T13:55:16.850Z,6.15
2019-02-10T13:57:45.529Z,8.00
2019-02-10T14:00:16.404Z,6.20
2019-02-10T14:02:45.186Z,6.70
2019-02-10T14:05:13.911Z,11.10
2019-02-10T14:07:42.598Z,11.57
2019-02-10T14:10:16.173Z,12.03
2019-02-10T14:12:45.064Z,12.20
2019-02-10T14:15:15.686Z,10.97
2019-02-10T14:17:44.501Z,10.97
2019-02-10T14:20:18.132Z,11.63
2019-02-10T14:22:46.909Z,13.93
2019-02-10T14:25:15.686Z,10.93
2019-02-10T14:27:44.367Z,12.17
2019-02-10T14:30:17.157Z,10.23
2019-02-10T14:32:45.969Z,11.97
2019-02-10T14:35:14.695Z,10.33
2019-02-10T14:37:43.619Z,10.30
2019-02-10T14:40:12.390Z,9.97
2019-02-10T14:42:41.076Z,10.00
2019-02-10T14:45:12.961Z,10.07
2019-02-10T14:47:41.906Z,8.63
2019-02-10T14:50:19.573Z,8.93
2019-02-10T14:52:48.256Z,8.60
2019-02-10T14:55:16.946Z,7.10
2019-02-10T14:57:45.641Z,10.93
2019-02-10T15:00:16.219Z,8.50
2019-02-10T15:02:44.919Z,7.63
2019-02-10T15:05:13.876Z,7.30
2019-02-10T15:07:42.559Z,7.47
2019-02-10T15:10:16.309Z,8.33
2019-02-10T15:12:44.983Z,8.53
2019-02-10T15:15:13.663Z,13.70
2019-02-10T15:17:42.525Z,14.77
2019-02-10T15:20:13.309Z,10.87
2019-02-10T15:22:42.011Z,10.37
2019-02-10T15:25:14.470Z,16.43
2019-02-10T15:27:43.155Z,17.80
2019-02-10T15:30:13.523Z,18.60
2019-02-10T15:32:42.306Z,14.70
2019-02-10T15:35:11.065Z,14.60
2019-02-10T15:37:39.753Z,15.63
2019-02-10T15:40:12.678Z,15.13
2019-02-10T15:42:41.411Z,17.80
2019-02-10T15:45:12.641Z,18.73
2019-02-10T15:47:41.307Z,22.83
2019-02-10T15:50:12.087Z,18.40
2019-02-10T15:52:40.771Z,17.03
2019-02-10T15:55:14.093Z,15.43
2019-02-10T15:57:42.839Z,13.90
2019-02-10T16:00:15.442Z,13.80
2019-02-10T16:02:44.063Z,15.50
2019-02-10T16:05:12.759Z,15.20
2019-02-10T16:07:41.432Z,17.17
2019-02-10T16:10:11.475Z,21.73
2019-02-10T16:12:40.149Z,35.80
2019-02-10T16:15:11.151Z,34.03
2019-02-10T16:17:39.824Z,23.27
2019-02-10T16:20:13.515Z,16.57
2019-02-10T16:22:42.167Z,16.50
2019-02-10T16:25:11.626Z,16.30
2019-02-10T16:27:40.290Z,16.93
2019-02-10T16:30:14.820Z,18.07
2019-02-10T16:32:49.667Z,20.50
2019-02-10T16:35:13.936Z,19.33
2019-02-10T16:37:42.590Z,20.20
2019-02-10T16:40:16.634Z,20.13
2019-02-10T16:42:45.539Z,21.80
2019-02-10T16:45:14.652Z,28.83
2019-02-10T16:47:43.446Z,30.87
2019-02-10T16:50:16.208Z,29.17
2019-02-10T16:52:44.998Z,30.67
2019-02-10T16:55:21.015Z,31.17
2019-02-10T16:57:49.689Z,31.13
2019-02-10T17:00:18.653Z,33.77
2019-02-10T17:02:47.337Z,89.03
2019-02-10T17:05:16.461Z,50.07
2019-02-10T17:07:45.145Z,33.53
2019-02-10T17:10:16.743Z,27.60
2019-02-10T17:12:45.406Z,20.20
2019-02-10T17:15:15.174Z,16.73
2019-02-10T17:17:43.849Z,17.03
2019-02-10T17:20:13.442Z,17.67
2019-02-10T17:22:42.113Z,14.83
2019-02-10T17:25:22.496Z,15.43
2019-02-10T17:27:51.165Z,17.43
2019-02-10T17:30:19.846Z,17.53
2019-02-10T17:32:48.549Z,17.87
2019-02-10T17:35:17.227Z,18.50
2019-02-10T17:37:45.903Z,15.70
2019-02-10T17:40:29.222Z,18.30
2019-02-10T17:42:57.900Z,17.00
2019-02-10T17:45:26.575Z,17.57
2019-02-10T17:47:55.262Z,18.93
2019-02-10T17:50:23.982Z,17.13
2019-02-10T17:52:52.650Z,20.50
2019-02-10T17:55:21.333Z,17.20
2019-02-10T17:57:50.045Z,21.40
2019-02-10T18:00:20.433Z,25.80
2019-02-10T18:02:49.158Z,25.67
2019-02-10T18:05:17.867Z,23.73
2019-02-10T18:07:46.533Z,22.70
2019-02-10T18:10:15.702Z,20.07
2019-02-10T18:12:44.389Z,21.00
2019-02-10T18:15:14.663Z,20.63
2019-02-10T18:17:47.639Z,24.73
2019-02-10T18:20:17.888Z,24.57
2019-02-10T18:23:00.169Z,20.40
2019-02-10T18:25:42.475Z,20.90
2019-02-10T18:28:29.086Z,21.97
2019-02-10T18:30:59.324Z,21.57
2019-02-10T18:33:38.615Z,22.93
2019-02-10T18:36:11.753Z,21.90
2019-02-10T18:38:42.027Z,24.20
2019-02-10T18:41:15.401Z,23.77
2019-02-10T18:43:51.683Z,19.90
2019-02-10T18:46:21.974Z,21.53
2019-02-10T18:48:52.248Z,21.10
2019-02-10T18:51:28.353Z,21.00
2019-02-10T18:54:13.877Z,22.23
2019-02-10T18:56:50.239Z,24.03
2019-02-10T18:59:36.843Z,23.37
2019-02-10T19:02:07.512Z,21.53
2019-02-10T19:04:40.733Z,24.43
2019-02-10T19:07:11.073Z,20.07
2019-02-10T19:09:41.311Z,18.70
2019-02-10T19:12:11.550Z,16.43
2019-02-10T19:14:44.386Z,20.07
2019-02-10T19:17:16.682Z,16.33
2019-02-10T19:19:46.920Z,17.07
2019-02-10T19:22:18.634Z,15.37
2019-02-10T19:24:48.866Z,15.37
2019-02-10T19:27:19.100Z,16.17
2019-02-10T19:29:52.528Z,16.07
2019-02-10T19:32:29.070Z,16.80
2019-02-10T19:34:59.314Z,18.37
2019-02-10T19:37:32.296Z,22.90
2019-02-10T19:40:11.386Z,23.37
2019-02-10T19:42:53.625Z,27.97
2019-02-10T19:45:27.016Z,26.87
2019-02-10T19:47:57.302Z,24.97
2019-02-10T19:50:33.426Z,23.20
2019-02-10T19:53:19.228Z,22.37
2019-02-10T19:56:06.071Z,21.80
2019-02-10T19:58:39.536Z,19.47
2019-02-10T20:01:15.755Z,22.17
2019-02-10T20:03:46.334Z,22.37
2019-02-10T20:06:16.585Z,19.60
2019-02-10T20:09:02.097Z,20.37
2019-02-10T20:11:32.564Z,20.03
2019-02-10T20:14:17.874Z,20.73
2019-02-10T20:16:48.124Z,19.43
2019-02-10T20:19:18.399Z,20.73
2019-02-10T20:21:51.244Z,18.90
2019-02-10T20:24:27.328Z,19.60
2019-02-10T20:27:12.749Z,19.27
2019-02-10T20:29:42.987Z,18.97
2019-02-10T20:32:19.145Z,19.17
2019-02-10T20:34:52.267Z,22.30
2019-02-10T20:37:28.260Z,20.57
2019-02-10T20:40:14.741Z,19.67
2019-02-10T20:42:45.414Z,19.80
2019-02-10T20:45:15.666Z,19.50
2019-02-10T20:47:51.672Z,24.77
2019-02-10T20:50:22.110Z,22.97
2019-02-10T20:52:52.423Z,21.73
2019-02-10T20:55:22.680Z,22.20
2019-02-10T20:57:55.934Z,22.63
2019-02-10T21:00:26.180Z,24.43
2019-02-10T21:03:05.434Z,23.07
2019-02-10T21:05:41.863Z,23.70
2019-02-10T21:08:24.279Z,23.53
2019-02-10T21:10:55.107Z,24.07
2019-02-10T21:13:31.355Z,24.50
2019-02-10T21:16:01.594Z,25.73
2019-02-10T21:18:31.867Z,25.77
2019-02-10T21:21:08.447Z,25.43
2019-02-10T21:23:50.608Z,25.77
2019-02-10T21:26:20.849Z,25.97
2019-02-10T21:28:51.084Z,23.90
2019-02-10T21:31:36.602Z,25.77
2019-02-10T21:34:06.845Z,26.13
2019-02-10T21:36:37.144Z,25.60
2019-02-10T21:39:20.817Z,26.13
2019-02-10T21:42:01.206Z,27.00
2019-02-10T21:44:47.623Z,25.27
2019-02-10T21:47:17.877Z,24.30
2019-02-10T21:49:46.533Z,26.10
2019-02-10T21:52:15.260Z,27.27
2019-02-10T21:54:44.094Z,26.07
2019-02-10T21:57:12.756Z,30.07
2019-02-10T21:59:41.449Z,28.37
2019-02-10T22:02:10.120Z,29.47
2019-02-10T22:04:38.816Z,29.07
2019-02-10T22:07:07.706Z,30.10
2019-02-10T22:09:36.395Z,29.37
2019-02-10T22:12:05.090Z,27.93
2019-02-10T22:14:34.059Z,28.83
2019-02-10T22:17:02.735Z,28.33
2019-02-10T22:19:31.398Z,29.17
2019-02-10T22:22:00.117Z,28.00
2019-02-10T22:24:28.787Z,29.23
2019-02-10T22:26:57.451Z,29.37
2019-02-10T22:29:26.257Z,29.43
2019-02-10T22:31:54.930Z,28.53
2019-02-10T22:34:23.602Z,29.03
2019-02-10T22:36:52.469Z,31.77
2019-02-10T22:39:21.145Z,32.23
2019-02-10T22:41:49.813Z,33.53
2019-02-10T22:44:18.636Z,33.20
2019-02-10T22:46:47.298Z,33.53
2019-02-10T22:49:15.981Z,34.47
2019-02-10T22:51:44.669Z,32.50
2019-02-10T22:54:13.366Z,29.37
2019-02-10T22:56:42.220Z,30.60
2019-02-10T22:59:10.899Z,28.80
2019-02-10T23:01:39.574Z,31.97
2019-02-10T23:04:08.309Z,30.10
2019-02-10T23:06:36.988Z,28.73
2019-02-10T23:09:09.242Z,29.37
2019-02-10T23:11:37.904Z,29.30
2019-02-10T23:14:06.609Z,29.70
2019-02-10T23:16:35.273Z,30.80
2019-02-10T23:19:03.940Z,29.43
2019-02-10T23:21:32.638Z,31.27
2019-02-10T23:24:01.309Z,31.60
2019-02-10T23:26:29.991Z,31.83
2019-02-10T23:28:58.753Z,30.57
2019-02-10T23:31:27.871Z,31.20
2019-02-10T23:33:56.536Z,32.57
2019-02-10T23:36:25.429Z,31.47
2019-02-10T23:38:54.140Z,33.17
2019-02-10T23:41:22.814Z,32.07
2019-02-10T23:43:51.519Z,32.57
2019-02-10T23:46:20.400Z,35.70
2019-02-10T23:48:49.085Z,34.43
2019-02-10T23:51:17.756Z,33.53
2019-02-10T23:53:46.559Z,34.13
2019-02-10T23:56:15.250Z,34.63
2019-02-10T23:58:43.947Z,36.43
